createdAt,value
2018-09-28T00:00:07.043Z,63.50
2018-09-28T00:01:11.159Z,63.50
2018-09-28T00:02:15.247Z,63.40
2018-09-28T00:03:19.779Z,63.40
2018-09-28T00:04:23.908Z,63.40
2018-09-28T00:05:28.020Z,63.50
2018-09-28T00:06:32.131Z,63.50
2018-09-28T00:07:36.174Z,63.60
2018-09-28T00:08:40.344Z,63.70
2018-09-28T00:09:44.424Z,63.60
2018-09-28T00:10:48.510Z,63.60
2018-09-28T00:11:52.592Z,63.60
2018-09-28T00:12:56.714Z,63.80
2018-09-28T00:14:00.816Z,63.80
2018-09-28T00:15:04.955Z,63.70
2018-09-28T00:16:09.150Z,63.60
2018-09-28T00:17:13.222Z,63.60
2018-09-28T00:18:17.879Z,63.50
2018-09-28T00:19:22.122Z,63.80
2018-09-28T00:20:26.431Z,63.80
2018-09-28T00:21:30.621Z,63.80
2018-09-28T00:22:34.750Z,63.70
2018-09-28T00:23:38.923Z,63.70
2018-09-28T00:24:42.974Z,63.80
2018-09-28T00:25:47.121Z,63.80
2018-09-28T00:26:51.185Z,63.80
2018-09-28T00:27:55.308Z,63.90
2018-09-28T00:28:59.396Z,63.80
2018-09-28T00:30:03.530Z,63.90
2018-09-28T00:31:07.654Z,63.90
2018-09-28T00:32:11.706Z,64.00
2018-09-28T00:33:15.771Z,63.90
2018-09-28T00:34:19.844Z,64.00
2018-09-28T00:35:23.943Z,64.10
2018-09-28T00:36:27.983Z,63.90
2018-09-28T00:37:32.059Z,64.20
2018-09-28T00:38:36.200Z,64.20
2018-09-28T00:39:40.409Z,64.20
2018-09-28T00:40:44.500Z,64.30
2018-09-28T00:41:48.650Z,64.10
2018-09-28T00:42:52.709Z,64.30
2018-09-28T00:43:56.799Z,64.30
2018-09-28T00:45:00.842Z,64.50
2018-09-28T00:46:04.950Z,64.50
2018-09-28T00:47:09.059Z,64.80
2018-09-28T00:48:13.210Z,64.70
2018-09-28T00:49:17.312Z,64.70
2018-09-28T00:50:21.400Z,64.60
2018-09-28T00:51:25.474Z,64.80
2018-09-28T00:52:29.676Z,64.80
2018-09-28T00:53:33.794Z,64.90
2018-09-28T00:54:37.888Z,64.90
2018-09-28T00:55:41.918Z,65.30
2018-09-28T00:56:45.959Z,65.30
2018-09-28T00:57:50.246Z,65.60
2018-09-28T00:58:54.308Z,65.70
2018-09-28T00:59:58.392Z,66.00
2018-09-28T01:01:02.559Z,65.90
2018-09-28T01:02:06.806Z,66.10
2018-09-28T01:03:10.909Z,66.00
2018-09-28T01:04:15.061Z,66.00
2018-09-28T01:05:19.162Z,66.10
2018-09-28T01:06:23.244Z,66.10
2018-09-28T01:07:27.466Z,66.30
2018-09-28T01:08:31.540Z,66.40
2018-09-28T01:09:35.640Z,66.80
2018-09-28T01:10:39.744Z,67.00
2018-09-28T01:11:44.327Z,66.60
2018-09-28T01:12:48.378Z,66.70
2018-09-28T01:13:52.573Z,66.50
2018-09-28T01:14:56.647Z,66.50
2018-09-28T01:16:00.718Z,66.50
2018-09-28T01:17:04.802Z,66.70
2018-09-28T01:18:08.918Z,67.00
2018-09-28T01:19:13.038Z,66.70
2018-09-28T01:20:17.087Z,67.10
2018-09-28T01:21:21.179Z,66.70
2018-09-28T01:22:25.334Z,66.50
2018-09-28T01:23:29.412Z,66.50
2018-09-28T01:24:33.680Z,66.50
2018-09-28T01:25:37.722Z,66.80
2018-09-28T01:26:41.757Z,66.80
2018-09-28T01:27:45.844Z,67.10
2018-09-28T01:28:50.034Z,67.00
2018-09-28T01:29:54.192Z,67.50
2018-09-28T01:30:58.354Z,66.70
2018-09-28T01:32:02.480Z,66.80
2018-09-28T01:33:06.522Z,66.80
2018-09-28T01:34:10.631Z,66.80
2018-09-28T01:35:14.859Z,66.70
2018-09-28T01:36:19.070Z,66.70
2018-09-28T01:37:23.394Z,66.80
2018-09-28T01:38:27.532Z,66.90
2018-09-28T01:39:31.602Z,66.80
2018-09-28T01:40:35.670Z,66.70
2018-09-28T01:41:39.898Z,66.50
2018-09-28T01:42:43.929Z,66.80
2018-09-28T01:43:48.081Z,66.50
2018-09-28T01:44:52.239Z,66.50
2018-09-28T01:45:56.411Z,66.60
2018-09-28T01:47:00.448Z,66.60
2018-09-28T01:48:04.596Z,66.60
2018-09-28T01:49:08.782Z,66.50
2018-09-28T01:50:12.861Z,66.60
2018-09-28T01:51:16.992Z,66.60
2018-09-28T01:52:21.160Z,67.30
2018-09-28T01:53:25.278Z,66.50
2018-09-28T01:54:29.385Z,66.40
2018-09-28T01:55:39.304Z,66.40
2018-09-28T01:56:49.396Z,66.40
2018-09-28T01:57:59.612Z,66.30
2018-09-28T01:59:09.770Z,66.20
2018-09-28T02:00:13.834Z,66.10
2018-09-28T02:01:17.960Z,66.10
2018-09-28T02:02:22.011Z,66.20
2018-09-28T02:03:26.065Z,66.30
2018-09-28T02:04:30.125Z,66.30
2018-09-28T02:05:34.536Z,66.20
2018-09-28T02:06:38.651Z,66.20
2018-09-28T02:07:42.707Z,66.00
2018-09-28T02:08:50.040Z,66.00
2018-09-28T02:09:54.354Z,66.00
2018-09-28T02:10:58.633Z,66.00
2018-09-28T02:12:03.121Z,66.00
2018-09-28T02:13:07.200Z,66.10
2018-09-28T02:14:11.234Z,66.30
2018-09-28T02:15:15.759Z,66.10
2018-09-28T02:16:19.899Z,66.00
2018-09-28T02:17:23.998Z,66.00
2018-09-28T02:18:28.500Z,66.00
2018-09-28T02:19:32.615Z,66.30
2018-09-28T02:20:36.734Z,66.10
2018-09-28T02:21:40.901Z,66.10
2018-09-28T02:22:45.489Z,66.90
2018-09-28T02:23:49.595Z,66.10
2018-09-28T02:24:53.667Z,66.10
2018-09-28T02:25:58.025Z,66.20
2018-09-28T02:27:02.272Z,66.10
2018-09-28T02:28:06.341Z,66.00
2018-09-28T02:29:10.415Z,66.30
2018-09-28T02:30:14.782Z,67.00
2018-09-28T02:31:18.856Z,66.10
2018-09-28T02:32:23.291Z,66.10
2018-09-28T02:33:27.424Z,66.90
2018-09-28T02:34:31.550Z,66.20
2018-09-28T02:35:35.677Z,66.00
2018-09-28T02:36:39.851Z,65.90
2018-09-28T02:37:43.969Z,65.90
2018-09-28T02:38:48.030Z,66.00
2018-09-28T02:39:52.329Z,65.90
2018-09-28T02:40:56.487Z,66.00
2018-09-28T02:42:00.655Z,65.90
2018-09-28T02:43:04.908Z,66.00
2018-09-28T02:44:09.077Z,65.90
2018-09-28T02:45:13.139Z,65.50
2018-09-28T02:46:17.728Z,65.90
2018-09-28T02:47:21.738Z,66.80
2018-09-28T02:48:25.793Z,66.10
2018-09-28T02:49:29.916Z,66.00
2018-09-28T02:50:34.266Z,66.00
2018-09-28T02:51:38.390Z,66.10
2018-09-28T02:52:43.049Z,66.20
2018-09-28T02:53:47.250Z,66.10
2018-09-28T02:54:51.326Z,66.00
2018-09-28T02:55:55.578Z,66.00
2018-09-28T02:56:59.743Z,66.10
2018-09-28T02:58:03.808Z,66.00
2018-09-28T02:59:08.080Z,66.00
2018-09-28T03:00:12.236Z,66.20
2018-09-28T03:01:16.361Z,66.30
2018-09-28T03:02:20.386Z,66.20
2018-09-28T03:03:24.388Z,66.20
2018-09-28T03:04:28.454Z,66.20
2018-09-28T03:05:32.802Z,67.00
2018-09-28T03:06:36.985Z,66.30
2018-09-28T03:07:41.164Z,66.30
2018-09-28T03:08:45.230Z,66.40
2018-09-28T03:09:49.649Z,66.30
2018-09-28T03:10:53.726Z,66.60
2018-09-28T03:11:57.759Z,66.20
2018-09-28T03:13:01.880Z,66.30
2018-09-28T03:14:06.003Z,66.50
2018-09-28T03:15:10.081Z,66.50
2018-09-28T03:16:14.521Z,66.40
2018-09-28T03:17:18.660Z,66.50
2018-09-28T03:18:22.738Z,66.40
2018-09-28T03:19:27.378Z,66.60
2018-09-28T03:20:31.472Z,66.50
2018-09-28T03:21:35.573Z,66.70
2018-09-28T03:22:40.064Z,66.60
2018-09-28T03:23:44.164Z,66.70
2018-09-28T03:24:48.215Z,66.60
2018-09-28T03:25:52.344Z,66.50
2018-09-28T03:26:56.378Z,66.70
2018-09-28T03:28:00.818Z,66.70
2018-09-28T03:29:04.932Z,66.80
2018-09-28T03:30:09.245Z,66.70
2018-09-28T03:31:13.415Z,66.80
2018-09-28T03:32:17.515Z,67.10
2018-09-28T03:33:21.749Z,66.80
2018-09-28T03:34:25.851Z,67.00
2018-09-28T03:35:30.040Z,66.90
2018-09-28T03:36:34.196Z,67.00
2018-09-28T03:37:38.227Z,67.00
2018-09-28T03:38:42.750Z,66.90
2018-09-28T03:39:47.154Z,67.00
2018-09-28T03:40:51.212Z,67.00
2018-09-28T03:41:55.354Z,67.10
2018-09-28T03:42:59.669Z,67.10
2018-09-28T03:44:03.940Z,67.10
2018-09-28T03:45:08.217Z,67.10
2018-09-28T03:46:12.338Z,67.10
2018-09-28T03:47:16.862Z,67.10
2018-09-28T03:48:20.880Z,67.20
2018-09-28T03:49:25.146Z,67.20
2018-09-28T03:50:29.247Z,67.10
2018-09-28T03:51:33.551Z,67.30
2018-09-28T03:52:37.796Z,67.40
2018-09-28T03:53:41.889Z,67.30
2018-09-28T03:54:46.037Z,67.40
2018-09-28T03:55:50.528Z,67.40
2018-09-28T03:56:54.683Z,67.40
2018-09-28T03:57:58.708Z,67.50
2018-09-28T03:59:03.295Z,67.60
2018-09-28T04:00:08.274Z,67.60
2018-09-28T04:01:12.412Z,67.80
2018-09-28T04:02:16.551Z,67.80
2018-09-28T04:03:20.778Z,67.60
2018-09-28T04:04:24.833Z,68.50
2018-09-28T04:05:28.907Z,67.80
2018-09-28T04:06:32.955Z,67.80
2018-09-28T04:07:37.564Z,68.00
2018-09-28T04:08:41.685Z,68.00
2018-09-28T04:09:45.836Z,67.90
2018-09-28T04:10:50.071Z,67.90
2018-09-28T04:11:54.120Z,67.90
2018-09-28T04:12:58.348Z,67.90
2018-09-28T04:14:02.522Z,67.90
2018-09-28T04:15:06.802Z,68.00
2018-09-28T04:16:10.868Z,67.90
2018-09-28T04:17:14.912Z,68.00
2018-09-28T04:18:19.124Z,68.00
2018-09-28T04:19:23.585Z,68.00
2018-09-28T04:20:27.675Z,67.80
2018-09-28T04:21:31.794Z,68.00
2018-09-28T04:22:35.934Z,68.00
2018-09-28T04:23:39.990Z,67.90
2018-09-28T04:24:44.093Z,67.90
2018-09-28T04:25:48.478Z,68.80
2018-09-28T04:26:52.813Z,68.10
2018-09-28T04:27:56.930Z,68.10
2018-09-28T04:29:01.009Z,68.00
2018-09-28T04:30:05.298Z,68.10
2018-09-28T04:31:09.613Z,67.90
2018-09-28T04:32:13.890Z,68.00
2018-09-28T04:33:18.094Z,68.10
2018-09-28T04:34:22.278Z,68.20
2018-09-28T04:35:26.618Z,68.10
2018-09-28T04:36:30.731Z,68.10
2018-09-28T04:37:34.865Z,68.10
2018-09-28T04:38:38.992Z,68.20
2018-09-28T04:39:43.329Z,68.20
2018-09-28T04:40:47.455Z,68.30
2018-09-28T04:41:51.584Z,68.20
2018-09-28T04:42:55.700Z,68.40
2018-09-28T04:43:59.845Z,68.40
2018-09-28T04:45:04.010Z,68.50
2018-09-28T04:46:08.104Z,68.70
2018-09-28T04:47:12.245Z,68.40
2018-09-28T04:48:16.469Z,68.60
2018-09-28T04:49:20.598Z,68.60
2018-09-28T04:50:24.706Z,68.60
2018-09-28T04:51:28.958Z,68.50
2018-09-28T04:52:33.133Z,68.50
2018-09-28T04:53:37.458Z,68.40
2018-09-28T04:54:41.617Z,68.50
2018-09-28T04:55:45.704Z,68.40
2018-09-28T04:56:49.812Z,68.40
2018-09-28T04:57:54.010Z,68.40
2018-09-28T04:58:58.158Z,68.30
2018-09-28T05:00:02.276Z,69.20
2018-09-28T05:01:06.640Z,69.10
2018-09-28T05:02:11.040Z,68.30
2018-09-28T05:03:15.269Z,69.00
2018-09-28T05:04:19.327Z,68.20
2018-09-28T05:05:23.576Z,68.20
2018-09-28T05:06:27.696Z,68.70
2018-09-28T05:07:32.053Z,68.30
2018-09-28T05:08:36.273Z,68.50
2018-09-28T05:09:40.365Z,68.70
2018-09-28T05:10:44.406Z,68.70
2018-09-28T05:11:48.647Z,68.50
2018-09-28T05:12:53.084Z,68.50
2018-09-28T05:13:57.280Z,68.50
2018-09-28T05:15:01.312Z,68.70
2018-09-28T05:16:05.448Z,68.50
2018-09-28T05:17:09.470Z,68.70
2018-09-28T05:18:13.556Z,68.60
2018-09-28T05:19:17.664Z,68.80
2018-09-28T05:20:22.058Z,68.60
2018-09-28T05:21:26.359Z,68.70
2018-09-28T05:22:30.578Z,68.70
2018-09-28T05:23:34.776Z,68.80
2018-09-28T05:24:39.008Z,68.90
2018-09-28T05:25:43.144Z,68.90
2018-09-28T05:26:47.724Z,68.70
2018-09-28T05:27:51.914Z,68.70
2018-09-28T05:28:56.584Z,68.70
2018-09-28T05:30:00.990Z,68.70
2018-09-28T05:31:05.138Z,68.70
2018-09-28T05:32:09.190Z,68.70
2018-09-28T05:33:13.247Z,68.70
2018-09-28T05:34:17.369Z,68.70
2018-09-28T05:35:21.750Z,68.70
2018-09-28T05:36:25.939Z,68.90
2018-09-28T05:37:30.019Z,68.80
2018-09-28T05:38:34.707Z,68.60
2018-09-28T05:39:39.102Z,68.70
2018-09-28T05:40:43.236Z,69.00
2018-09-28T05:41:47.344Z,68.90
2018-09-28T05:42:51.490Z,69.00
2018-09-28T05:43:56.005Z,68.90
2018-09-28T05:45:00.203Z,68.90
2018-09-28T05:46:04.236Z,68.90
2018-09-28T05:47:08.246Z,68.90
2018-09-28T05:48:12.611Z,69.00
2018-09-28T05:49:16.796Z,69.20
2018-09-28T05:50:21.101Z,69.00
2018-09-28T05:51:25.645Z,69.20
2018-09-28T05:52:29.755Z,69.10
2018-09-28T05:53:34.049Z,69.20
2018-09-28T05:54:38.212Z,69.20
2018-09-28T05:55:42.424Z,69.00
2018-09-28T05:56:46.781Z,69.10
2018-09-28T05:57:53.109Z,69.30
2018-09-28T05:59:02.640Z,69.30
2018-09-28T06:00:12.299Z,69.60
2018-09-28T06:01:21.795Z,69.50
2018-09-28T06:02:31.413Z,69.40
2018-09-28T06:03:39.744Z,69.40
2018-09-28T06:04:49.123Z,69.30
2018-09-28T06:05:58.452Z,69.40
2018-09-28T06:07:02.606Z,69.30
2018-09-28T06:08:06.715Z,69.50
2018-09-28T06:09:11.935Z,69.60
2018-09-28T06:10:16.230Z,69.70
2018-09-28T06:11:20.398Z,69.70
2018-09-28T06:12:24.752Z,69.60
2018-09-28T06:13:28.820Z,69.50
2018-09-28T06:14:32.989Z,69.50
2018-09-28T06:15:37.118Z,69.50
2018-09-28T06:16:41.471Z,69.50
2018-09-28T06:17:45.500Z,69.50
2018-09-28T06:18:49.656Z,69.50
2018-09-28T06:19:54.094Z,69.60
2018-09-28T06:20:58.576Z,69.60
2018-09-28T06:22:02.926Z,69.50
2018-09-28T06:23:13.682Z,69.50
2018-09-28T06:24:17.828Z,69.60
2018-09-28T06:25:22.092Z,69.40
2018-09-28T06:26:26.196Z,69.60
2018-09-28T06:27:30.468Z,69.50
2018-09-28T06:28:35.024Z,69.40
2018-09-28T06:29:39.170Z,69.50
2018-09-28T06:30:43.242Z,69.60
2018-09-28T06:31:47.531Z,69.50
2018-09-28T06:32:51.700Z,69.40
2018-09-28T06:33:55.810Z,69.40
2018-09-28T06:35:00.153Z,69.40
2018-09-28T06:36:04.568Z,69.40
2018-09-28T06:37:08.619Z,69.50
2018-09-28T06:38:12.988Z,69.40
2018-09-28T06:39:17.039Z,69.40
2018-09-28T06:40:21.235Z,69.40
2018-09-28T06:41:25.330Z,69.40
2018-09-28T06:42:29.428Z,69.30
2018-09-28T06:43:33.428Z,69.40
2018-09-28T06:44:37.686Z,69.50
2018-09-28T06:45:41.789Z,69.40
2018-09-28T06:46:45.940Z,69.30
2018-09-28T06:47:50.229Z,69.40
2018-09-28T06:48:55.035Z,69.40
2018-09-28T06:49:59.154Z,69.20
2018-09-28T06:51:03.328Z,69.20
2018-09-28T06:52:07.767Z,69.20
2018-09-28T06:53:11.881Z,69.00
2018-09-28T06:54:16.006Z,69.00
2018-09-28T06:55:20.186Z,68.80
2018-09-28T06:56:24.645Z,68.90
2018-09-28T06:57:28.773Z,68.80
2018-09-28T06:58:32.901Z,68.80
2018-09-28T06:59:37.094Z,68.90
2018-09-28T07:00:41.251Z,68.80
2018-09-28T07:01:45.806Z,68.70
2018-09-28T07:02:49.914Z,68.70
2018-09-28T07:03:54.082Z,68.60
2018-09-28T07:04:58.271Z,68.50
2018-09-28T07:06:02.514Z,68.60
2018-09-28T07:07:07.052Z,68.50
2018-09-28T07:08:11.291Z,68.40
2018-09-28T07:09:15.363Z,68.20
2018-09-28T07:10:19.488Z,68.20
2018-09-28T07:11:23.944Z,68.20
2018-09-28T07:12:28.034Z,68.10
2018-09-28T07:13:32.224Z,68.00
2018-09-28T07:14:36.484Z,68.70
2018-09-28T07:15:40.606Z,67.90
2018-09-28T07:16:44.797Z,67.80
2018-09-28T07:17:48.842Z,67.60
2018-09-28T07:18:53.288Z,67.60
2018-09-28T07:19:57.368Z,67.60
2018-09-28T07:21:01.479Z,67.60
2018-09-28T07:22:05.546Z,67.40
2018-09-28T07:23:09.750Z,67.30
2018-09-28T07:24:14.113Z,67.30
2018-09-28T07:25:18.566Z,67.30
2018-09-28T07:26:22.885Z,67.30
2018-09-28T07:27:27.002Z,67.10
2018-09-28T07:28:31.088Z,67.10
2018-09-28T07:29:35.382Z,67.00
2018-09-28T07:30:39.667Z,66.90
2018-09-28T07:31:43.692Z,66.80
2018-09-28T07:32:47.781Z,66.70
2018-09-28T07:33:51.899Z,66.70
2018-09-28T07:34:56.382Z,67.40
2018-09-28T07:36:00.546Z,66.50
2018-09-28T07:37:04.650Z,66.50
2018-09-28T07:38:08.681Z,66.50
2018-09-28T07:39:13.506Z,66.40
2018-09-28T07:40:18.048Z,67.10
2018-09-28T07:41:22.266Z,66.30
2018-09-28T07:42:26.324Z,66.30
2018-09-28T07:43:30.673Z,67.00
2018-09-28T07:44:34.793Z,66.20
2018-09-28T07:45:39.006Z,66.00
2018-09-28T07:46:43.180Z,66.10
2018-09-28T07:47:47.383Z,66.10
2018-09-28T07:48:51.416Z,66.00
2018-09-28T07:49:55.546Z,66.00
2018-09-28T07:50:59.933Z,65.90
2018-09-28T07:52:04.085Z,65.90
2018-09-28T07:53:08.133Z,65.80
2018-09-28T07:54:12.228Z,66.00
2018-09-28T07:55:16.818Z,65.90
2018-09-28T07:56:21.021Z,65.90
2018-09-28T07:57:25.267Z,65.70
2018-09-28T07:58:29.691Z,65.80
2018-09-28T07:59:33.810Z,65.80
2018-09-28T08:00:37.906Z,65.50
2018-09-28T08:01:42.441Z,65.50
2018-09-28T08:02:46.614Z,65.50
2018-09-28T08:03:50.772Z,65.50
2018-09-28T08:04:54.842Z,65.60
2018-09-28T08:05:59.957Z,65.30
2018-09-28T08:07:04.139Z,65.00
2018-09-28T08:08:08.319Z,64.80
2018-09-28T08:09:12.552Z,64.40
2018-09-28T08:10:17.055Z,63.80
2018-09-28T08:11:21.171Z,63.70
2018-09-28T08:12:25.302Z,63.80
2018-09-28T08:13:29.708Z,63.40
2018-09-28T08:14:33.817Z,63.10
2018-09-28T08:15:38.012Z,63.00
2018-09-28T08:16:42.061Z,62.90
2018-09-28T08:17:46.362Z,62.80
2018-09-28T08:18:50.841Z,62.40
2018-09-28T08:19:55.002Z,62.00
2018-09-28T08:20:59.058Z,61.60
2018-09-28T08:22:03.476Z,61.30
2018-09-28T08:23:07.615Z,61.30
2018-09-28T08:24:11.701Z,61.10
2018-09-28T08:25:15.780Z,61.10
2018-09-28T08:26:19.885Z,60.80
2018-09-28T08:27:24.040Z,60.90
2018-09-28T08:28:28.331Z,60.90
2018-09-28T08:29:32.842Z,60.50
2018-09-28T08:30:37.282Z,60.30
2018-09-28T08:31:41.626Z,59.70
2018-09-28T08:32:45.733Z,59.70
2018-09-28T08:33:49.857Z,59.30
2018-09-28T08:34:54.198Z,59.10
2018-09-28T08:35:58.384Z,58.70
2018-09-28T08:37:02.560Z,58.40
2018-09-28T08:38:06.774Z,58.20
2018-09-28T08:39:10.868Z,57.50
2018-09-28T08:40:15.437Z,57.20
2018-09-28T08:41:19.655Z,56.70
2018-09-28T08:42:23.790Z,55.80
2018-09-28T08:43:27.857Z,55.80
2018-09-28T08:44:31.893Z,55.40
2018-09-28T08:45:36.221Z,55.40
2018-09-28T08:46:40.614Z,55.10
2018-09-28T08:47:45.014Z,55.40
2018-09-28T08:48:49.322Z,54.50
2018-09-28T08:49:53.511Z,54.40
2018-09-28T08:50:57.830Z,54.00
2018-09-28T08:52:01.914Z,54.00
2018-09-28T08:53:06.282Z,52.90
2018-09-28T08:54:10.338Z,52.60
2018-09-28T08:55:14.482Z,52.40
2018-09-28T08:56:18.982Z,52.10
2018-09-28T08:57:23.190Z,51.80
2018-09-28T08:58:27.396Z,51.50
2018-09-28T08:59:31.532Z,50.80
2018-09-28T09:00:36.047Z,50.80
2018-09-28T09:01:40.193Z,50.50
2018-09-28T09:02:44.301Z,50.30
2018-09-28T09:03:48.596Z,50.10
2018-09-28T09:04:52.766Z,49.50
2018-09-28T09:05:56.829Z,49.10
2018-09-28T09:07:01.151Z,48.70
2018-09-28T09:08:05.873Z,48.20
2018-09-28T09:09:11.106Z,47.70
2018-09-28T09:10:15.364Z,47.40
2018-09-28T09:11:19.810Z,46.70
2018-09-28T09:12:24.058Z,46.50
2018-09-28T09:13:28.276Z,46.20
2018-09-28T09:14:33.427Z,46.00
2018-09-28T09:15:37.856Z,46.60
2018-09-28T09:16:42.119Z,45.50
2018-09-28T09:17:46.855Z,45.30
2018-09-28T09:18:50.900Z,44.60
2018-09-28T09:19:55.063Z,45.00
2018-09-28T09:20:59.959Z,44.70
2018-09-28T09:22:04.330Z,44.60
2018-09-28T09:23:08.673Z,44.40
2018-09-28T09:24:12.823Z,44.40
2018-09-28T09:25:17.153Z,44.40
2018-09-28T09:26:21.532Z,44.40
2018-09-28T09:27:25.664Z,44.30
2018-09-28T09:28:30.020Z,44.10
2018-09-28T09:29:34.088Z,44.00
2018-09-28T09:30:38.376Z,44.10
2018-09-28T09:31:42.955Z,44.00
2018-09-28T09:32:47.018Z,43.90
2018-09-28T09:33:51.176Z,43.20
2018-09-28T09:34:55.821Z,43.80
2018-09-28T09:36:00.013Z,43.50
2018-09-28T09:37:04.156Z,43.20
2018-09-28T09:38:08.409Z,42.90
2018-09-28T09:39:13.011Z,42.60
2018-09-28T09:40:17.074Z,42.20
2018-09-28T09:41:21.784Z,41.50
2018-09-28T09:42:25.885Z,41.40
2018-09-28T09:43:29.966Z,40.80
2018-09-28T09:44:34.085Z,40.60
2018-09-28T09:45:38.333Z,40.50
2018-09-28T09:46:43.016Z,40.00
2018-09-28T09:47:50.104Z,40.60
2018-09-28T09:48:54.481Z,39.50
2018-09-28T09:49:58.874Z,39.60
2018-09-28T09:51:03.016Z,39.40
2018-09-28T09:52:07.382Z,39.30
2018-09-28T09:53:11.654Z,39.10
2018-09-28T09:54:15.803Z,38.90
2018-09-28T09:55:19.947Z,38.60
2018-09-28T09:56:24.182Z,38.50
2018-09-28T09:57:28.502Z,38.00
2018-09-28T09:58:33.220Z,37.80
2018-09-28T09:59:37.421Z,37.50
2018-09-28T10:00:46.765Z,37.50
2018-09-28T10:01:56.316Z,37.60
2018-09-28T10:03:00.851Z,37.60
2018-09-28T10:04:08.873Z,37.40
2018-09-28T10:05:13.222Z,37.40
2018-09-28T10:06:17.300Z,37.30
2018-09-28T10:07:21.507Z,36.80
2018-09-28T10:08:25.967Z,36.50
2018-09-28T10:09:30.109Z,36.30
2018-09-28T10:10:34.411Z,36.10
2018-09-28T10:11:38.833Z,36.10
2018-09-28T10:12:43.362Z,36.00
2018-09-28T10:13:47.630Z,36.80
2018-09-28T10:14:52.340Z,35.90
2018-09-28T10:15:56.432Z,36.30
2018-09-28T10:17:01.107Z,35.60
2018-09-28T10:18:05.603Z,35.40
2018-09-28T10:19:09.729Z,35.30
2018-09-28T10:20:13.840Z,35.20
2018-09-28T10:21:18.114Z,35.10
2018-09-28T10:22:22.472Z,35.50
2018-09-28T10:23:26.554Z,34.60
2018-09-28T10:24:30.701Z,34.30
2018-09-28T10:25:35.077Z,34.20
2018-09-28T10:26:39.151Z,35.00
2018-09-28T10:27:43.353Z,34.00
2018-09-28T10:28:47.805Z,33.90
2018-09-28T10:29:51.864Z,33.70
2018-09-28T10:30:56.009Z,33.70
2018-09-28T10:32:00.316Z,33.60
2018-09-28T10:33:04.468Z,33.70
2018-09-28T10:34:08.703Z,33.70
2018-09-28T10:35:13.188Z,33.80
2018-09-28T10:36:17.597Z,33.90
2018-09-28T10:37:21.891Z,33.90
2018-09-28T10:38:26.075Z,34.50
2018-09-28T10:39:30.247Z,34.40
2018-09-28T10:40:34.612Z,33.70
2018-09-28T10:41:38.909Z,33.50
2018-09-28T10:42:42.988Z,33.50
2018-09-28T10:43:47.087Z,33.20
2018-09-28T10:44:51.495Z,32.80
2018-09-28T10:45:55.728Z,32.70
2018-09-28T10:47:00.269Z,32.70
2018-09-28T10:48:04.352Z,32.60
2018-09-28T10:49:08.528Z,32.60
2018-09-28T10:50:13.413Z,32.70
2018-09-28T10:51:17.912Z,32.60
2018-09-28T10:52:22.244Z,32.40
2018-09-28T10:53:26.064Z,32.20
2018-09-28T10:54:30.820Z,32.00
2018-09-28T10:55:34.956Z,31.80
2018-09-28T10:56:39.503Z,31.60
2018-09-28T10:57:43.589Z,31.50
2018-09-28T10:58:47.809Z,31.50
2018-09-28T10:59:52.118Z,31.50
2018-09-28T11:00:56.304Z,31.60
2018-09-28T11:02:00.446Z,31.40
2018-09-28T11:03:04.675Z,31.50
2018-09-28T11:04:08.819Z,31.50
2018-09-28T11:05:12.943Z,32.10
2018-09-28T11:06:17.149Z,31.40
2018-09-28T11:07:21.269Z,31.50
2018-09-28T11:08:25.500Z,32.20
2018-09-28T11:09:29.577Z,31.20
2018-09-28T11:10:34.009Z,30.80
2018-09-28T11:11:38.220Z,30.70
2018-09-28T11:12:42.306Z,30.50
2018-09-28T11:13:46.407Z,30.40
2018-09-28T11:14:50.742Z,30.20
2018-09-28T11:15:54.822Z,30.00
2018-09-28T11:16:59.006Z,30.00
2018-09-28T11:18:03.167Z,30.00
2018-09-28T11:19:07.399Z,30.00
2018-09-28T11:20:11.495Z,30.00
2018-09-28T11:21:15.639Z,29.90
2018-09-28T11:22:20.015Z,29.90
2018-09-28T11:23:24.172Z,30.00
2018-09-28T11:24:28.297Z,30.00
2018-09-28T11:25:32.436Z,29.90
2018-09-28T11:26:36.590Z,29.80
2018-09-28T11:27:40.870Z,30.40
2018-09-28T11:28:45.172Z,29.90
2018-09-28T11:29:49.310Z,29.90
2018-09-28T11:30:53.594Z,29.80
2018-09-28T11:31:57.737Z,29.70
2018-09-28T11:33:01.829Z,29.80
2018-09-28T11:34:06.018Z,29.90
2018-09-28T11:35:10.694Z,29.90
2018-09-28T11:36:15.056Z,30.00
2018-09-28T11:37:19.819Z,30.00
2018-09-28T11:38:24.005Z,30.20
2018-09-28T11:39:28.280Z,30.30
2018-09-28T11:40:32.365Z,30.30
2018-09-28T11:41:36.507Z,30.20
2018-09-28T11:42:41.507Z,30.00
2018-09-28T11:43:45.653Z,30.00
2018-09-28T11:44:49.792Z,30.00
2018-09-28T11:45:53.927Z,29.80
2018-09-28T11:46:58.221Z,29.80
2018-09-28T11:48:02.443Z,29.80
2018-09-28T11:49:09.917Z,29.80
2018-09-28T11:50:14.193Z,30.00
2018-09-28T11:51:18.661Z,29.70
2018-09-28T11:52:22.781Z,29.70
2018-09-28T11:53:27.051Z,29.50
2018-09-28T11:54:31.375Z,29.50
2018-09-28T11:55:35.626Z,29.50
2018-09-28T11:56:39.920Z,29.50
2018-09-28T11:57:44.169Z,29.50
2018-09-28T11:58:48.287Z,29.40
2018-09-28T11:59:52.891Z,29.40
2018-09-28T12:00:57.116Z,29.40
2018-09-28T12:02:01.282Z,29.30
2018-09-28T12:03:05.679Z,29.30
2018-09-28T12:04:10.338Z,29.40
2018-09-28T12:05:14.554Z,29.40
2018-09-28T12:06:18.816Z,29.40
2018-09-28T12:07:23.031Z,29.80
2018-09-28T12:08:27.132Z,29.00
2018-09-28T12:09:31.675Z,29.40
2018-09-28T12:10:35.960Z,28.80
2018-09-28T12:11:40.036Z,28.70
2018-09-28T12:12:44.208Z,28.70
2018-09-28T12:13:48.502Z,28.70
2018-09-28T12:14:52.650Z,28.60
2018-09-28T12:15:56.958Z,28.50
2018-09-28T12:17:01.125Z,28.80
2018-09-28T12:18:05.483Z,28.10
2018-09-28T12:19:09.583Z,27.90
2018-09-28T12:20:13.854Z,27.80
2018-09-28T12:21:18.150Z,27.60
2018-09-28T12:22:22.488Z,27.40
2018-09-28T12:23:26.590Z,27.30
2018-09-28T12:24:30.703Z,27.40
2018-09-28T12:25:34.807Z,27.30
2018-09-28T12:26:39.243Z,27.20
2018-09-28T12:27:43.617Z,27.20
2018-09-28T12:28:47.710Z,27.30
2018-09-28T12:29:51.874Z,27.30
2018-09-28T12:30:56.016Z,27.40
2018-09-28T12:32:00.123Z,27.40
2018-09-28T12:33:04.227Z,27.50
2018-09-28T12:34:08.381Z,27.50
2018-09-28T12:35:12.936Z,27.70
2018-09-28T12:36:17.221Z,28.10
2018-09-28T12:37:21.249Z,28.20
2018-09-28T12:38:25.381Z,27.70
2018-09-28T12:39:29.630Z,27.70
2018-09-28T12:40:34.004Z,27.70
2018-09-28T12:41:38.239Z,27.70
2018-09-28T12:42:42.758Z,27.70
2018-09-28T12:43:46.967Z,28.30
2018-09-28T12:44:51.047Z,27.90
2018-09-28T12:45:55.308Z,27.90
2018-09-28T12:46:59.448Z,28.00
2018-09-28T12:48:03.585Z,28.00
2018-09-28T12:49:07.710Z,28.00
2018-09-28T12:50:11.884Z,28.00
2018-09-28T12:51:16.100Z,27.80
2018-09-28T12:52:20.469Z,27.70
2018-09-28T12:53:24.621Z,27.60
2018-09-28T12:54:28.661Z,27.50
2018-09-28T12:55:32.954Z,27.30
2018-09-28T12:56:37.182Z,27.20
2018-09-28T12:57:41.234Z,27.10
2018-09-28T12:58:45.405Z,27.20
2018-09-28T12:59:49.460Z,27.20
2018-09-28T13:00:53.744Z,27.10
2018-09-28T13:01:57.890Z,27.10
2018-09-28T13:03:02.291Z,27.10
2018-09-28T13:04:06.522Z,27.30
2018-09-28T13:05:10.620Z,27.40
2018-09-28T13:06:14.780Z,27.60
2018-09-28T13:07:18.859Z,27.80
2018-09-28T13:08:23.247Z,27.80
2018-09-28T13:09:27.495Z,27.80
2018-09-28T13:10:31.935Z,27.80
2018-09-28T13:11:35.988Z,28.30
2018-09-28T13:12:40.048Z,27.80
2018-09-28T13:13:44.144Z,27.90
2018-09-28T13:14:48.322Z,28.10
2018-09-28T13:15:52.544Z,28.80
2018-09-28T13:16:56.680Z,28.50
2018-09-28T13:18:00.839Z,28.60
2018-09-28T13:19:05.149Z,28.70
2018-09-28T13:20:09.315Z,28.70
2018-09-28T13:21:14.089Z,28.80
2018-09-28T13:22:18.197Z,28.90
2018-09-28T13:23:22.375Z,28.90
2018-09-28T13:24:26.513Z,28.90
2018-09-28T13:25:30.896Z,28.80
2018-09-28T13:26:35.022Z,28.60
2018-09-28T13:27:39.221Z,28.70
2018-09-28T13:28:43.916Z,28.60
2018-09-28T13:29:48.031Z,28.50
2018-09-28T13:30:52.289Z,28.60
2018-09-28T13:31:56.582Z,28.40
2018-09-28T13:33:00.677Z,28.50
2018-09-28T13:34:05.687Z,29.00
2018-09-28T13:35:10.297Z,28.50
2018-09-28T13:36:14.417Z,28.50
2018-09-28T13:37:18.853Z,28.50
2018-09-28T13:38:23.215Z,28.50
2018-09-28T13:39:27.244Z,28.40
2018-09-28T13:40:31.418Z,28.50
2018-09-28T13:41:35.690Z,28.50
2018-09-28T13:42:40.033Z,28.50
2018-09-28T13:43:44.052Z,28.50
2018-09-28T13:44:48.554Z,28.60
2018-09-28T13:45:52.661Z,28.40
2018-09-28T13:46:56.782Z,28.80
2018-09-28T13:48:01.037Z,28.70